Time;durP1;ratioP1;P1;durP2;ratioP2;P2;SDS_P1;SDS_P2;PMS_P1;PMS_P2;Temp;Humidity;BMP_temperature;BMP_pressure;BME280_temperature;BME280_humidity;BME280_pressure;Samples;Min_cycle;Max_cycle;Signal;HPM_P1;HPM_P2
2021/08/15 00:02:20;;;;;;;17.27;8.95;;;717.50;1843.20;;;;;;5155171;27;20019;-83
2021/08/15 00:04:46;;;;;;;10.50;8.18;;;717.60;1843.20;;;;;;5155456;27;20498;-85
2021/08/15 00:07:14;;;;;;;13.30;7.68;;;717.70;1843.20;;;;;;5155097;27;20019;-86
2021/08/15 00:09:40;;;;;;;13.85;8.73;;;717.70;1843.20;;;;;;5155587;27;20035;-82
2021/08/15 00:12:07;;;;;;;15.75;8.50;;;717.70;1843.20;;;;;;5155493;27;20014;-79
2021/08/15 00:14:34;;;;;;;14.05;8.60;;;717.70;1817.60;;;;;;5152533;27;20022;-78
2021/08/15 00:17:00;;;;;;;12.40;9.90;;;742.50;1843.20;;;;;;5155509;27;20022;-78
2021/08/15 00:19:26;;;;;;;12.38;8.75;;;717.70;1843.20;;;;;;5155261;27;20464;-85
2021/08/15 00:21:52;;;;;;;8.57;7.30;;;717.50;1868.80;;;;;;5154811;27;20147;-86
2021/08/15 00:24:18;;;;;;;9.18;7.57;;;717.00;1868.80;;;;;;5154821;27;20613;-87
2021/08/15 00:26:44;;;;;;;12.63;8.43;;;692.10;1894.40;;;;;;5154968;27;20105;-86
2021/08/15 00:29:09;;;;;;;10.73;8.00;;;691.80;1920.00;;;;;;5154844;27;20023;-79
2021/08/15 00:31:35;;;;;;;11.52;8.40;;;691.70;1920.00;;;;;;5151964;27;20011;-80
2021/08/15 00:34:01;;;;;;;13.70;8.57;;;691.70;1945.60;;;;;;5154964;27;20063;-85
2021/08/15 00:36:27;;;;;;;15.50;8.57;;;691.70;1920.00;;;;;;5136808;27;20027;-86
2021/08/15 00:38:53;;;;;;;11.82;8.73;;;691.40;1945.60;;;;;;5159000;27;20020;-77
2021/08/15 00:41:19;;;;;;;13.90;9.07;;;691.20;1971.20;;;;;;5159060;27;20023;-83
2021/08/15 00:43:44;;;;;;;12.75;7.75;;;691.20;1996.80;;;;;;5159022;27;20031;-85
2021/08/15 00:46:12;;;;;;;12.38;8.50;;;666.40;1996.80;;;;;;5139450;27;20031;-78
2021/08/15 00:48:39;;;;;;;14.88;10.25;;;666.20;1971.20;;;;;;5156057;27;20059;-84
2021/08/15 00:51:06;;;;;;;19.77;9.10;;;665.90;1945.60;;;;;;5158659;27;20015;-80
2021/08/15 00:53:34;;;;;;;16.63;9.77;;;666.00;1945.60;;;;;;5158433;27;20030;-86
2021/08/15 00:56:02;;;;;;;15.43;9.80;;;666.40;1920.00;;;;;;5158394;27;20018;-84
2021/08/15 00:58:31;;;;;;;16.77;8.77;;;666.30;1945.60;;;;;;5139421;27;20107;-85
2021/08/15 01:01:01;;;;;;;17.88;9.48;;;666.00;1971.20;;;;;;5155896;27;20011;-85
2021/08/15 01:03:28;;;;;;;13.05;9.43;;;691.20;1971.20;;;;;;5159408;27;20027;-85
2021/08/15 01:05:54;;;;;;;19.25;9.25;;;665.80;1996.80;;;;;;5137896;27;20027;-82
2021/08/15 01:08:20;;;;;;;17.35;12.48;;;665.60;1996.80;;;;;;5159843;27;20026;-83
2021/08/15 01:10:46;;;;;;;18.80;10.50;;;640.90;1996.80;;;;;;5159372;27;20380;-86
2021/08/15 01:13:11;;;;;;;15.00;9.57;;;640.90;1996.80;;;;;;5159340;27;20041;-85
2021/08/15 01:15:39;;;;;;;15.45;9.95;;;640.80;1996.80;;;;;;5159006;27;20027;-86
2021/08/15 01:18:26;;;;;;;17.60;9.85;;;640.80;1996.80;;;;;;5162777;27;20025;-77
2021/08/15 01:20:58;;;;;;;18.27;10.75;;;640.70;2022.40;;;;;;5172289;27;20026;-79
2021/08/15 01:23:24;;;;;;;17.50;10.13;;;640.50;2022.40;;;;;;5172465;27;20042;-78
2021/08/15 01:25:50;;;;;;;18.77;10.45;;;640.60;2022.40;;;;;;5140612;27;20054;-80
2021/08/15 01:28:18;;;;;;;17.90;10.68;;;640.30;2048.00;;;;;;5159242;27;20498;-77
2021/08/15 01:30:44;;;;;;;15.85;10.48;;;640.50;2022.40;;;;;;5158874;27;20080;-86
2021/08/15 01:33:11;;;;;;;15.82;10.43;;;640.50;2022.40;;;;;;5158330;27;20495;-87
2021/08/15 01:35:37;;;;;;;16.08;10.55;;;640.50;2022.40;;;;;;5157966;27;20018;-86
2021/08/15 01:38:02;;;;;;;21.50;11.13;;;640.40;2022.40;;;;;;5158135;27;20023;-83
2021/08/15 01:40:28;;;;;;;17.92;10.10;;;640.30;2048.00;;;;;;5158542;27;20029;-87
2021/08/15 01:42:55;;;;;;;14.52;9.38;;;640.10;2048.00;;;;;;5158118;27;20122;-86
2021/08/15 01:45:21;;;;;;;13.50;10.07;;;615.30;2099.20;;;;;;5158098;27;20050;-89
2021/08/15 01:47:46;;;;;;;17.33;10.52;;;640.10;2048.00;;;;;;5138451;27;20079;-87
2021/08/15 01:50:12;;;;;;;29.60;11.52;;;640.30;2048.00;;;;;;5158142;27;20472;-77
2021/08/15 01:52:38;;;;;;;14.82;9.85;;;640.30;2048.00;;;;;;5157870;27;20011;-77
2021/08/15 01:55:06;;;;;;;15.15;9.55;;;640.30;2048.00;;;;;;5157611;27;20102;-88
2021/08/15 01:57:32;;;;;;;16.90;10.40;;;640.20;2048.00;;;;;;5157243;27;20027;-79
2021/08/15 01:59:57;;;;;;;15.73;9.93;;;640.20;2048.00;;;;;;5157764;27;20376;-86
2021/08/15 02:02:23;;;;;;;12.65;10.38;;;640.10;2048.00;;;;;;5157514;27;20030;-88
2021/08/15 02:04:49;;;;;;;19.63;10.95;;;640.20;2048.00;;;;;;5138884;27;20438;-80
2021/08/15 02:07:14;;;;;;;12.88;9.80;;;640.20;2022.40;;;;;;5157137;27;20033;-84
2021/08/15 02:09:40;;;;;;;15.88;10.02;;;640.10;2022.40;;;;;;5138951;27;20034;-80
2021/08/15 02:12:06;;;;;;;16.85;11.15;;;640.00;2022.40;;;;;;5156629;27;20026;-81
2021/08/15 02:14:38;;;;;;;15.10;10.65;;;640.00;2048.00;;;;;;5138202;27;20031;-91
2021/08/15 02:17:03;;;;;;;20.85;11.02;;;640.10;2022.40;;;;;;5138609;27;20015;-78
2021/08/15 02:19:29;;;;;;;22.20;10.80;;;640.00;2022.40;;;;;;5138772;27;20022;-87
2021/08/15 02:21:55;;;;;;;16.20;10.20;;;640.40;1996.80;;;;;;5156153;27;20030;-86
2021/08/15 02:24:21;;;;;;;21.50;10.65;;;640.40;2022.40;;;;;;5155740;27;20039;-85
2021/08/15 02:26:46;;;;;;;14.30;9.93;;;640.20;2022.40;;;;;;5154945;27;20035;-76
2021/08/15 02:29:12;;;;;;;18.13;10.80;;;640.10;2022.40;;;;;;5156107;27;20029;-77
2021/08/15 02:31:38;;;;;;;21.58;10.35;;;640.00;2022.40;;;;;;5137011;27;20471;-83
2021/08/15 02:34:04;;;;;;;14.50;10.45;;;615.30;2048.00;;;;;;5138750;27;20056;-78
2021/08/15 02:36:29;;;;;;;16.88;9.68;;;615.30;2048.00;;;;;;5161656;27;20173;-85
2021/08/15 02:38:55;;;;;;;25.02;10.95;;;615.30;2022.40;;;;;;5138205;27;20041;-87
2021/08/15 02:41:21;;;;;;;12.73;10.10;;;615.30;2022.40;;;;;;5132817;27;20080;-85
2021/08/15 02:43:47;;;;;;;14.10;10.45;;;615.20;2022.40;;;;;;5138618;27;20096;-82
2021/08/15 02:46:12;;;;;;;18.85;10.63;;;615.20;2022.40;;;;;;5156806;27;20025;-81
2021/08/15 02:48:38;;;;;;;14.88;10.93;;;615.20;1996.80;;;;;;5138042;27;20027;-85
2021/08/15 02:51:04;;;;;;;19.13;11.93;;;615.20;1996.80;;;;;;5156138;27;20025;-86
2021/08/15 02:53:30;;;;;;;23.42;14.38;;;615.00;1996.80;;;;;;5156394;27;20023;-87
2021/08/15 02:55:55;;;;;;;23.42;15.45;;;615.00;2022.40;;;;;;5156209;27;20027;-87
2021/08/15 02:58:21;;;;;;;21.58;15.45;;;614.90;2022.40;;;;;;5156461;27;20023;-85
2021/08/15 03:00:47;;;;;;;22.17;16.60;;;614.90;2022.40;;;;;;5155378;27;20026;-85
2021/08/15 03:03:12;;;;;;;32.08;17.30;;;614.90;2022.40;;;;;;5155802;27;20061;-85
2021/08/15 03:05:38;;;;;;;26.98;17.52;;;614.80;2022.40;;;;;;5156229;27;20027;-87
2021/08/15 03:08:04;;;;;;;26.77;16.98;;;614.80;2048.00;;;;;;5156033;27;20396;-80
2021/08/15 03:10:30;;;;;;;23.98;17.00;;;614.80;2048.00;;;;;;5155862;27;20026;-78
2021/08/15 03:12:55;;;;;;;23.13;15.05;;;614.80;2048.00;;;;;;5155922;27;20022;-82
2021/08/15 03:15:21;;;;;;;22.95;16.60;;;614.70;2073.60;;;;;;5134219;27;20026;-84
2021/08/15 03:17:47;;;;;;;27.98;17.58;;;614.60;2099.20;;;;;;5155768;27;20027;-82
2021/08/15 03:20:14;;;;;;;25.73;17.73;;;614.70;2073.60;;;;;;5137554;27;20054;-85
2021/08/15 03:22:40;;;;;;;22.85;17.25;;;614.70;2073.60;;;;;;5137398;27;20038;-79
2021/08/15 03:25:06;;;;;;;25.83;15.77;;;614.70;2073.60;;;;;;5155249;27;20074;-85
2021/08/15 03:27:32;;;;;;;25.05;16.73;;;614.60;2099.20;;;;;;5137539;27;20104;-82
2021/08/15 03:29:58;;;;;;;24.27;16.08;;;614.50;2099.20;;;;;;5163304;27;20015;-84
2021/08/15 03:32:23;;;;;;;25.27;15.52;;;614.60;2099.20;;;;;;5155901;27;20363;-78
2021/08/15 03:34:49;;;;;;;27.85;16.73;;;614.50;2099.20;;;;;;5155609;27;20091;-85
2021/08/15 03:37:16;;;;;;;28.85;16.50;;;614.60;2099.20;;;;;;5155661;27;20025;-77
2021/08/15 03:39:42;;;;;;;23.77;15.65;;;614.60;2099.20;;;;;;5155350;27;20491;-79
2021/08/15 03:42:07;;;;;;;20.55;15.68;;;614.60;2099.20;;;;;;5155456;27;20027;-85
2021/08/15 03:44:33;;;;;;;25.73;16.58;;;614.60;2099.20;;;;;;5136858;27;20085;-84
2021/08/15 03:46:59;;;;;;;25.65;16.70;;;614.70;2073.60;;;;;;5136584;27;20019;-85
2021/08/15 03:49:27;;;;;;;30.08;16.90;;;614.80;2073.60;;;;;;5155480;27;20025;-85
2021/08/15 03:51:53;;;;;;;24.30;17.45;;;614.80;2073.60;;;;;;5155345;27;20046;-84
2021/08/15 03:54:22;;;;;;;25.60;17.67;;;614.80;2048.00;;;;;;5136806;27;20172;-84
2021/08/15 03:56:48;;;;;;;26.77;16.90;;;615.00;2048.00;;;;;;5155396;27;20027;-85
2021/08/15 03:59:14;;;;;;;26.33;17.77;;;615.20;2022.40;;;;;;5136675;27;20488;-85
2021/08/15 04:01:40;;;;;;;28.70;17.45;;;615.00;2048.00;;;;;;5136263;27;20495;-85
2021/08/15 04:04:06;;;;;;;28.10;18.20;;;615.00;2048.00;;;;;;5154782;27;20114;-85
2021/08/15 04:06:34;;;;;;;22.30;18.13;;;614.90;2073.60;;;;;;5154895;27;20042;-85
2021/08/15 04:09:01;;;;;;;29.17;18.75;;;614.80;2073.60;;;;;;5154824;27;20023;-85
2021/08/15 04:11:27;;;;;;;23.75;18.05;;;614.80;2073.60;;;;;;5136392;27;20067;-85
2021/08/15 04:13:53;;;;;;;28.08;19.00;;;614.70;2099.20;;;;;;5155049;27;20067;-86
2021/08/15 04:16:19;;;;;;;27.40;17.50;;;614.70;2099.20;;;;;;5155210;27;20022;-86
2021/08/15 04:18:45;;;;;;;30.08;19.02;;;614.60;2099.20;;;;;;5152089;27;20074;-87
2021/08/15 04:21:11;;;;;;;27.15;17.52;;;614.70;2099.20;;;;;;5136554;27;20131;-79
2021/08/15 04:23:37;;;;;;;26.08;18.48;;;614.90;2073.60;;;;;;5154626;27;20054;-87
2021/08/15 04:26:03;;;;;;;32.25;19.27;;;614.80;2073.60;;;;;;5154539;27;20090;-88
2021/08/15 04:28:30;;;;;;;29.30;19.58;;;614.80;2073.60;;;;;;5154827;27;20015;-85
2021/08/15 04:30:56;;;;;;;27.55;20.15;;;614.70;2099.20;;;;;;5136386;27;20026;-78
2021/08/15 04:33:24;;;;;;;32.30;20.13;;;614.70;2099.20;;;;;;5154658;27;20025;-86
2021/08/15 04:35:51;;;;;;;26.55;18.92;;;614.60;2099.20;;;;;;5154857;27;20044;-87
2021/08/15 04:38:17;;;;;;;24.73;18.13;;;614.60;2099.20;;;;;;5136340;27;20528;-87
2021/08/15 04:40:42;;;;;;;32.97;19.73;;;614.80;2099.20;;;;;;5136157;27;20031;-78
2021/08/15 04:43:08;;;;;;;30.85;18.77;;;614.80;2099.20;;;;;;5135699;27;20042;-77
2021/08/15 04:45:35;;;;;;;24.08;17.48;;;614.60;2124.80;;;;;;5154791;27;20353;-84
2021/08/15 04:48:02;;;;;;;27.30;17.20;;;614.80;2099.20;;;;;;5154529;27;20188;-79
2021/08/15 04:50:28;;;;;;;32.17;19.40;;;614.90;2099.20;;;;;;5154726;27;20078;-86
2021/08/15 04:52:53;;;;;;;40.72;22.75;;;614.90;2073.60;;;;;;5135921;27;20014;-77
2021/08/15 04:55:19;;;;;;;58.72;29.23;;;614.80;2073.60;;;;;;5135933;27;20031;-85
2021/08/15 04:57:45;;;;;;;59.22;31.13;;;614.80;2099.20;;;;;;5154366;27;20015;-83
2021/08/15 05:00:11;;;;;;;57.25;30.73;;;614.90;2099.20;;;;;;5136027;27;20045;-79
2021/08/15 05:02:37;;;;;;;43.50;24.40;;;614.90;2099.20;;;;;;5154241;27;20058;-78
2021/08/15 05:05:03;;;;;;;41.20;21.98;;;614.90;2073.60;;;;;;5154345;27;20102;-84
2021/08/15 05:07:28;;;;;;;25.27;19.15;;;615.00;2073.60;;;;;;5155649;27;20033;-84
2021/08/15 05:09:54;;;;;;;25.13;15.95;;;615.20;2073.60;;;;;;5155146;27;20033;-84
2021/08/15 05:12:20;;;;;;;22.85;15.35;;;615.30;2048.00;;;;;;5154924;27;20436;-79
2021/08/15 05:14:45;;;;;;;31.25;15.63;;;615.30;2048.00;;;;;;5154923;27;20026;-85
2021/08/15 05:17:11;;;;;;;24.27;16.67;;;640.20;1996.80;;;;;;5159793;27;20439;-80
2021/08/15 05:19:37;;;;;;;31.23;18.77;;;640.20;1996.80;;;;;;5172369;27;20046;-78
2021/08/15 05:22:03;;;;;;;27.33;19.00;;;640.20;1996.80;;;;;;5171777;27;20038;-82
2021/08/15 05:24:28;;;;;;;28.70;19.35;;;640.20;2022.40;;;;;;5157644;27;20053;-84
2021/08/15 05:26:54;;;;;;;30.15;19.45;;;640.40;1996.80;;;;;;5158261;27;20030;-76
2021/08/15 05:29:20;;;;;;;24.90;19.48;;;640.50;1996.80;;;;;;5139632;27;20027;-84
2021/08/15 05:31:46;;;;;;;28.83;19.77;;;640.60;1971.20;;;;;;5158456;27;20080;-89
2021/08/15 05:34:12;;;;;;;31.77;18.33;;;640.70;1971.20;;;;;;5159053;27;20039;-91
2021/08/15 05:36:37;;;;;;;29.10;20.17;;;640.90;1945.60;;;;;;5158129;27;20038;-88
2021/08/15 05:39:05;;;;;;;27.05;18.95;;;665.60;1971.20;;;;;;5139520;27;20121;-90
2021/08/15 05:41:31;;;;;;;26.27;18.17;;;665.70;1945.60;;;;;;5157547;27;20038;-90
2021/08/15 05:43:57;;;;;;;26.65;16.52;;;665.90;1920.00;;;;;;5139577;27;20069;-76
2021/08/15 05:46:23;;;;;;;28.33;17.30;;;666.00;1894.40;;;;;;5158036;27;20053;-85
2021/08/15 05:48:49;;;;;;;21.30;15.52;;;666.20;1894.40;;;;;;5157988;27;20019;-82
2021/08/15 05:51:15;;;;;;;24.90;14.85;;;666.30;1894.40;;;;;;5157995;27;20026;-86
2021/08/15 05:53:40;;;;;;;22.98;14.85;;;666.40;1894.40;;;;;;5158041;27;20026;-82
2021/08/15 05:56:06;;;;;;;22.45;15.40;;;666.50;1894.40;;;;;;5157775;27;20027;-82
2021/08/15 05:58:32;;;;;;;22.08;13.07;;;691.20;1868.80;;;;;;5158055;27;20091;-85
2021/08/15 06:00:57;;;;;;;25.50;13.85;;;691.20;1894.40;;;;;;5157689;27;20420;-84
2021/08/15 06:03:23;;;;;;;18.75;13.70;;;691.30;1868.80;;;;;;5139286;27;20027;-76
2021/08/15 06:05:49;;;;;;;22.65;13.00;;;691.40;1843.20;;;;;;5157562;27;20022;-81
2021/08/15 06:08:16;;;;;;;22.20;13.90;;;691.40;1843.20;;;;;;5157521;27;20026;-90
2021/08/15 06:10:42;;;;;;;20.80;13.38;;;691.60;1843.20;;;;;;5157667;27;20019;-90
2021/08/15 06:13:09;;;;;;;24.10;14.23;;;691.60;1843.20;;;;;;5157055;27;20095;-90
2021/08/15 06:15:35;;;;;;;20.98;12.95;;;691.60;1843.20;;;;;;5157383;27;20438;-81
2021/08/15 06:18:01;;;;;;;30.88;14.18;;;691.40;1868.80;;;;;;5156901;27;20026;-87
2021/08/15 06:20:28;;;;;;;23.95;13.93;;;691.60;1868.80;;;;;;5156911;27;20034;-86
2021/08/15 06:22:54;;;;;;;22.95;13.50;;;691.70;1817.60;;;;;;5156662;27;20019;-78
2021/08/15 06:25:20;;;;;;;20.65;13.25;;;691.80;1817.60;;;;;;5137890;27;20125;-82
2021/08/15 06:27:47;;;;;;;18.48;12.45;;;691.90;1817.60;;;;;;5156466;27;20043;-78
2021/08/15 06:30:14;;;;;;;23.20;12.80;;;692.10;1792.00;;;;;;5157052;27;20486;-87
2021/08/15 06:32:51;;;;;;;24.77;12.88;;;716.80;1792.00;;;;;;5157323;27;20057;-86
2021/08/15 06:35:19;;;;;;;31.05;13.90;;;716.90;1766.40;;;;;;5157295;27;20029;-86
2021/08/15 06:37:46;;;;;;;21.33;12.25;;;716.90;1792.00;;;;;;5156993;27;20014;-84
2021/08/15 06:40:13;;;;;;;23.35;14.35;;;717.00;1766.40;;;;;;5156880;27;20026;-81
2021/08/15 06:42:39;;;;;;;35.65;24.27;;;717.10;1792.00;;;;;;5156912;27;20416;-85
2021/08/15 06:45:05;;;;;;;39.92;26.65;;;717.20;1766.40;;;;;;5157925;27;20061;-83
2021/08/15 06:47:31;;;;;;;31.15;15.82;;;717.30;1766.40;;;;;;5157470;27;20106;-80
2021/08/15 06:49:56;;;;;;;31.20;17.63;;;717.40;1766.40;;;;;;5156705;27;20098;-84
2021/08/15 06:52:22;;;;;;;41.78;23.33;;;717.60;1740.80;;;;;;5156838;27;20464;-87
2021/08/15 06:54:48;;;;;;;25.85;13.63;;;717.70;1740.80;;;;;;5156420;27;20074;-87
2021/08/15 06:57:14;;;;;;;21.40;13.35;;;717.70;1740.80;;;;;;5156929;27;20031;-85
2021/08/15 06:59:40;;;;;;;23.55;14.57;;;742.40;1740.80;;;;;;5156810;27;20022;-85
2021/08/15 07:02:06;;;;;;;26.25;13.88;;;742.50;1715.20;;;;;;5137746;27;20446;-78
2021/08/15 07:04:32;;;;;;;17.23;12.23;;;742.60;1740.80;;;;;;5137804;27;20174;-84
2021/08/15 07:06:57;;;;;;;21.35;12.60;;;742.80;1715.20;;;;;;5156426;27;20050;-89
2021/08/15 07:09:23;;;;;;;18.92;10.77;;;742.80;1689.60;;;;;;5156426;27;20023;-85
2021/08/15 07:11:49;;;;;;;19.42;11.93;;;742.90;1664.00;;;;;;5137808;27;20022;-85
2021/08/15 07:14:15;;;;;;;17.02;11.98;;;743.00;1664.00;;;;;;5137927;27;20095;-86
2021/08/15 07:16:40;;;;;;;20.15;11.18;;;743.10;1664.00;;;;;;5137590;27;20027;-88
2021/08/15 07:19:06;;;;;;;20.55;11.48;;;743.20;1664.00;;;;;;5156250;27;20034;-93
2021/08/15 07:21:32;;;;;;;21.05;12.38;;;743.30;1612.80;;;;;;5156336;27;20080;-84
2021/08/15 07:23:58;;;;;;;21.42;11.57;;;768.10;1612.80;;;;;;5137592;27;20050;-80
2021/08/15 07:26:23;;;;;;;19.67;14.55;;;768.20;1612.80;;;;;;5136679;27;20030;-76
2021/08/15 07:28:49;;;;;;;21.38;13.07;;;768.40;1638.40;;;;;;5155800;27;20097;-77
2021/08/15 07:31:15;;;;;;;17.33;12.25;;;768.40;1612.80;;;;;;5137092;27;20105;-78
2021/08/15 07:33:41;;;;;;;18.85;10.40;;;768.60;1587.20;;;;;;5164525;27;20072;-78
2021/08/15 07:36:06;;;;;;;18.55;12.15;;;768.60;1587.20;;;;;;5136249;27;20023;-82
2021/08/15 07:38:33;;;;;;;25.13;11.93;;;768.70;1587.20;;;;;;5154649;27;20114;-78
2021/08/15 07:40:59;;;;;;;18.42;10.68;;;768.90;1587.20;;;;;;5135930;27;20076;-77
2021/08/15 07:43:25;;;;;;;14.73;10.40;;;793.60;1561.60;;;;;;5154376;27;20069;-78
2021/08/15 07:45:51;;;;;;;15.23;10.45;;;793.70;1587.20;;;;;;5135683;27;20018;-78
2021/08/15 07:48:17;;;;;;;18.92;10.75;;;793.90;1587.20;;;;;;5154736;27;20019;-77
2021/08/15 07:50:43;;;;;;;18.58;10.00;;;794.00;1561.60;;;;;;5154461;27;20131;-78
2021/08/15 07:53:16;;;;;;;16.00;10.85;;;794.10;1561.60;;;;;;5135802;27;20121;-78
2021/08/15 07:55:42;;;;;;;11.35;9.77;;;794.20;1561.60;;;;;;5153897;27;20103;-78
2021/08/15 07:58:08;;;;;;;16.08;10.27;;;794.00;1536.00;;;;;;5153912;27;20034;-76
2021/08/15 08:00:33;;;;;;;14.05;9.82;;;794.20;1510.40;;;;;;5135713;27;20026;-77
2021/08/15 08:02:59;;;;;;;18.90;9.88;;;794.20;1510.40;;;;;;5154479;27;20475;-76
2021/08/15 08:05:25;;;;;;;16.23;9.02;;;794.50;1484.80;;;;;;5154707;27;20065;-77
2021/08/15 08:07:50;;;;;;;18.70;9.38;;;794.50;1484.80;;;;;;5155263;27;20049;-81
2021/08/15 08:10:16;;;;;;;22.33;10.30;;;819.20;1510.40;;;;;;5155173;27;20019;-80
2021/08/15 08:12:45;;;;;;;13.40;9.00;;;819.30;1510.40;;;;;;5154992;27;20046;-77
2021/08/15 08:15:11;;;;;;;14.90;9.52;;;819.30;1484.80;;;;;;5154804;27;20061;-78
2021/08/15 08:17:37;;;;;;;19.80;9.82;;;819.30;1484.80;;;;;;5136406;27;20025;-77
2021/08/15 08:20:03;;;;;;;15.15;9.13;;;819.30;1459.20;;;;;;5170296;27;20034;-81
2021/08/15 08:22:29;;;;;;;15.18;9.77;;;819.40;1459.20;;;;;;5154601;27;20027;-80
2021/08/15 08:24:55;;;;;;;12.48;9.30;;;819.40;1433.60;;;;;;5144351;27;20050;-77
2021/08/15 08:27:20;;;;;;;13.55;9.07;;;819.40;1433.60;;;;;;5147773;27;20383;-80
2021/08/15 08:29:47;;;;;;;16.98;9.60;;;819.60;1433.60;;;;;;5154585;27;20019;-78
2021/08/15 08:32:13;;;;;;;15.05;9.18;;;819.70;1433.60;;;;;;5154467;27;20019;-80
2021/08/15 08:34:38;;;;;;;10.30;8.05;;;819.80;1459.20;;;;;;5154197;27;20026;-80
2021/08/15 08:37:04;;;;;;;11.77;8.13;;;819.80;1408.00;;;;;;5154636;27;20010;-83
2021/08/15 08:39:30;;;;;;;21.48;8.48;;;819.90;1382.40;;;;;;5136244;27;20063;-78
2021/08/15 08:42:00;;;;;;;13.50;8.57;;;819.90;1408.00;;;;;;5154888;27;20034;-80
2021/08/15 08:44:30;;;;;;;15.15;8.35;;;820.00;1408.00;;;;;;5154870;27;20527;-79
2021/08/15 08:47:03;;;;;;;9.93;8.20;;;820.10;1356.80;;;;;;5154818;27;20491;-85
2021/08/15 08:49:29;;;;;;;13.10;8.40;;;844.80;1382.40;;;;;;5136145;27;20027;-81
2021/08/15 08:51:56;;;;;;;14.70;8.60;;;844.80;1382.40;;;;;;5152243;27;20117;-81
2021/08/15 08:54:24;;;;;;;13.68;8.70;;;844.90;1408.00;;;;;;5150511;27;20022;-78
2021/08/15 08:56:49;;;;;;;13.98;8.32;;;844.90;1408.00;;;;;;5158002;27;20027;-84
2021/08/15 08:59:15;;;;;;;13.73;7.93;;;845.00;1408.00;;;;;;5139745;27;20482;-82
2021/08/15 09:01:42;;;;;;;14.48;7.63;;;845.00;1382.40;;;;;;5140098;27;20042;-81
2021/08/15 09:04:10;;;;;;;15.95;9.38;;;844.90;1382.40;;;;;;5157249;27;20105;-79
2021/08/15 09:06:38;;;;;;;11.77;7.05;;;845.00;1433.60;;;;;;5139010;27;20025;-82
2021/08/15 09:09:16;;;;;;;13.05;7.35;;;845.10;1382.40;;;;;;5139773;27;20034;-82
2021/08/15 09:11:44;;;;;;;10.63;7.07;;;845.20;1356.80;;;;;;5136934;27;20042;-80
2021/08/15 09:14:12;;;;;;;13.82;7.65;;;845.30;1305.60;;;;;;5157807;27;20025;-82
2021/08/15 09:16:59;;;;;;;13.98;6.82;;;845.20;1280.00;;;;;;5157475;27;20479;-79
2021/08/15 09:19:29;;;;;;;10.77;7.75;;;845.30;1305.60;;;;;;5138777;27;20022;-82
2021/08/15 09:21:57;;;;;;;16.33;7.57;;;845.40;1305.60;;;;;;5140231;27;20019;-81
2021/08/15 09:24:23;;;;;;;15.68;7.40;;;845.40;1305.60;;;;;;5139238;27;20204;-85
2021/08/15 09:26:57;;;;;;;14.77;6.38;;;845.50;1305.60;;;;;;5158650;27;20023;-85
2021/08/15 09:29:24;;;;;;;14.35;7.75;;;845.50;1305.60;;;;;;5158347;27;20023;-83
2021/08/15 09:31:50;;;;;;;11.05;7.47;;;845.50;1280.00;;;;;;5134585;27;20023;-84
2021/08/15 09:34:27;;;;;;;11.63;7.38;;;845.70;1280.00;;;;;;5134665;27;20077;-81
2021/08/15 09:36:53;;;;;;;12.48;7.28;;;870.40;1254.40;;;;;;5133160;27;20023;-77
2021/08/15 09:39:32;;;;;;;16.40;7.18;;;870.50;1254.40;;;;;;5152017;27;20026;-81
2021/08/15 09:41:58;;;;;;;12.07;6.97;;;870.50;1203.20;;;;;;5146910;27;20023;-83
2021/08/15 09:44:31;;;;;;;9.23;7.13;;;870.60;1228.80;;;;;;5151943;27;20026;-82
2021/08/15 09:47:00;;;;;;;13.32;6.95;;;870.70;1203.20;;;;;;5149494;27;20488;-79
2021/08/15 09:49:34;;;;;;;9.13;7.00;;;870.70;1228.80;;;;;;5151562;27;20022;-79
2021/08/15 09:52:00;;;;;;;9.63;6.28;;;870.90;1203.20;;;;;;5145803;27;20026;-80
2021/08/15 09:54:26;;;;;;;10.55;6.65;;;871.00;1177.60;;;;;;5151357;27;20014;-77
2021/08/15 09:56:55;;;;;;;8.38;6.10;;;871.10;1177.60;;;;;;5148230;27;20023;-81
2021/08/15 09:59:22;;;;;;;9.07;5.93;;;871.10;1152.00;;;;;;5149684;27;20030;-77
2021/08/15 10:01:53;;;;;;;11.18;6.53;;;871.30;1177.60;;;;;;5149635;27;20026;-80
2021/08/15 10:04:20;;;;;;;10.70;7.03;;;896.00;1126.40;;;;;;5148379;27;20109;-78
2021/08/15 10:06:48;;;;;;;11.80;6.82;;;896.20;1126.40;;;;;;5131925;27;20114;-77
2021/08/15 10:09:14;;;;;;;9.55;6.65;;;896.30;1126.40;;;;;;5148005;27;20042;-78
2021/08/15 10:11:41;;;;;;;11.05;6.53;;;896.50;1126.40;;;;;;5156587;27;20063;-81
2021/08/15 10:14:09;;;;;;;13.68;5.97;;;896.80;1075.20;;;;;;5153715;27;20083;-77
2021/08/15 10:17:04;;;;;;;12.40;6.50;;;896.80;1075.20;;;;;;5156186;27;20449;-79
2021/08/15 10:19:36;;;;;;;12.13;6.68;;;896.90;1075.20;;;;;;5138276;27;20101;-83
2021/08/15 10:22:02;;;;;;;9.27;6.07;;;921.80;1075.20;;;;;;5147385;27;20048;-83
2021/08/15 10:24:52;;;;;;;9.75;5.97;;;922.40;1024.00;;;;;;5121782;27;20043;-83
2021/08/15 10:27:42;;;;;;;11.02;6.40;;;948.10;972.80;;;;;;5135667;27;20031;-83
2021/08/15 10:30:14;;;;;;;8.52;6.38;;;973.20;998.40;;;;;;5152602;27;20015;-85
2021/08/15 10:32:55;;;;;;;9.88;5.80;;;973.40;947.20;;;;;;5138389;27;20053;-83
2021/08/15 10:35:31;;;;;;;11.68;5.93;;;973.70;947.20;;;;;;5138155;27;20490;-83
2021/08/15 10:38:01;;;;;;;7.97;5.65;;;998.60;921.60;;;;;;5137860;27;20038;-81
2021/08/15 10:40:42;;;;;;;15.68;6.00;;;998.80;921.60;;;;;;5137755;27;20044;-79
2021/08/15 10:43:23;;;;;;;9.02;6.15;;;998.80;921.60;;;;;;5155023;27;20073;-80
2021/08/15 10:46:08;;;;;;;8.95;5.70;;;998.90;921.60;;;;;;5150113;27;20098;-79
2021/08/15 10:48:49;;;;;;;;;;;999.00;947.20;;;;;;5117860;27;20075;-83
2021/08/15 10:51:39;;;;;;;9.55;6.38;;;999.20;947.20;;;;;;5142654;27;19922;-83
2021/08/15 10:54:06;;;;;;;8.40;6.18;;;999.10;947.20;;;;;;5155371;27;20031;-84
2021/08/15 10:56:51;;;;;;;12.20;7.00;;;999.20;947.20;;;;;;5155631;27;20015;-79
2021/08/15 10:59:32;;;;;;;;;;;1024.20;947.20;;;;;;5134758;27;20430;-81
2021/08/15 11:02:08;;;;;;;16.20;7.35;;;999.20;947.20;;;;;;5155067;27;19997;-79
2021/08/15 11:04:33;;;;;;;12.07;6.70;;;998.90;921.60;;;;;;5155037;27;20109;-79
2021/08/15 11:06:59;;;;;;;10.50;6.20;;;999.20;921.60;;;;;;5134809;27;20160;-78
2021/08/15 11:09:55;;;;;;;9.48;6.88;;;1024.40;896.00;;;;;;5153552;27;20027;-78
2021/08/15 11:12:21;;;;;;;13.68;6.57;;;1024.40;896.00;;;;;;5153814;27;20114;-79
2021/08/15 11:15:03;;;;;;;10.90;6.43;;;999.30;947.20;;;;;;5155152;27;20025;-79
2021/08/15 11:17:30;;;;;;;13.55;9.57;;;1024.50;870.40;;;;;;5154948;27;20101;-78
2021/08/15 11:20:16;;;;;;;10.68;6.15;;;1024.20;896.00;;;;;;5136254;27;20464;-78
2021/08/15 11:22:42;;;;;;;10.10;6.60;;;1024.60;870.40;;;;;;5158814;27;20033;-78
2021/08/15 11:25:08;;;;;;;14.90;9.65;;;1024.60;870.40;;;;;;5154617;27;20118;-81
2021/08/15 11:27:35;;;;;;;18.65;9.68;;;1024.40;870.40;;;;;;5136712;27;20371;-82
2021/08/15 11:30:08;;;;;;;7.95;5.80;;;999.30;921.60;;;;;;5155756;27;20073;-79
2021/08/15 11:32:35;;;;;;;12.10;7.47;;;998.90;921.60;;;;;;5134767;27;20018;-83
2021/08/15 11:35:12;;;;;;;11.63;6.63;;;998.80;921.60;;;;;;5133083;27;20033;-81
2021/08/15 11:37:46;;;;;;;20.27;11.48;;;998.80;947.20;;;;;;5142161;27;20041;-81
2021/08/15 11:40:17;;;;;;;13.70;6.22;;;973.70;921.60;;;;;;5151384;27;20058;-80
2021/08/15 11:42:54;;;;;;;9.88;6.32;;;998.50;947.20;;;;;;5136212;27;20447;-80
2021/08/15 11:45:19;;;;;;;9.95;6.60;;;973.70;921.60;;;;;;5151138;27;20061;-79
2021/08/15 11:47:45;;;;;;;8.40;6.40;;;973.70;921.60;;;;;;5134480;27;20050;-81
2021/08/15 11:50:19;;;;;;;9.68;6.10;;;973.70;921.60;;;;;;5152749;27;20035;-80
2021/08/15 11:52:47;;;;;;;11.60;6.82;;;998.50;947.20;;;;;;5121788;27;20023;-82
2021/08/15 11:55:27;;;;;;;10.93;7.40;;;998.50;947.20;;;;;;5134138;27;20035;-79
2021/08/15 11:57:58;;;;;;;15.02;6.07;;;998.50;921.60;;;;;;5152766;27;20038;-80
2021/08/15 12:00:33;;;;;;;13.20;5.93;;;973.70;896.00;;;;;;5154473;27;20050;-79
2021/08/15 12:03:05;;;;;;;7.57;5.95;;;973.60;921.60;;;;;;5151910;27;20031;-81
2021/08/15 12:05:33;;;;;;;10.52;6.07;;;973.70;921.60;;;;;;5135869;27;20019;-82
2021/08/15 12:08:04;;;;;;;19.45;6.75;;;973.70;921.60;;;;;;5151829;27;20015;-79
2021/08/15 12:10:35;;;;;;;10.38;5.97;;;973.70;896.00;;;;;;5154309;27;20014;-78